createdAt,value
2018-07-17T04:54:57.040Z,53.98
2018-07-17T04:56:08.743Z,53.21
2018-07-17T04:57:15.137Z,53.16
2018-07-17T04:58:32.429Z,52.53
2018-07-17T04:59:39.449Z,52.46
2018-07-17T05:00:46.243Z,51.63
2018-07-17T05:01:52.794Z,51.64
2018-07-17T05:03:00.046Z,50.99
2018-07-17T05:04:06.449Z,50.67
2018-07-17T05:05:12.844Z,50.64
2018-07-17T05:06:19.387Z,50.26
2018-07-17T05:07:27.617Z,50.02
2018-07-17T05:08:35.042Z,49.68
2018-07-17T05:09:42.636Z,48.60
2018-07-17T05:10:50.513Z,48.40
2018-07-17T05:11:57.159Z,47.91
2018-07-17T05:13:04.440Z,47.62
2018-07-17T05:14:11.065Z,47.79
2018-07-17T05:15:18.480Z,47.46
2018-07-17T05:16:25.951Z,46.31
2018-07-17T05:17:32.525Z,46.35
2018-07-17T05:18:39.288Z,45.94
2018-07-17T05:19:46.844Z,45.84
2018-07-17T05:20:54.310Z,45.65
2018-07-17T05:22:01.030Z,45.33
2018-07-17T05:23:07.614Z,44.96
2018-07-17T05:24:14.980Z,44.87
2018-07-17T05:25:21.483Z,44.89
2018-07-17T05:26:28.721Z,44.37
2018-07-17T05:27:36.084Z,44.08
2018-07-17T05:28:44.801Z,43.54
2018-07-17T05:29:51.145Z,42.94
2018-07-17T05:30:58.991Z,43.04
2018-07-17T05:32:06.422Z,42.71
2018-07-17T05:33:13.632Z,42.44
2018-07-17T05:34:20.994Z,42.93
2018-07-17T05:35:27.613Z,42.23
2018-07-17T05:36:34.796Z,42.05
2018-07-17T05:37:42.020Z,42.07
2018-07-17T05:38:48.547Z,41.91
2018-07-17T05:39:55.667Z,41.64
2018-07-17T05:41:04.366Z,41.62
2018-07-17T05:42:11.992Z,41.04
2018-07-17T05:43:18.601Z,41.06
2018-07-17T05:44:25.312Z,41.00
2018-07-17T05:45:31.751Z,40.40
2018-07-17T05:46:38.340Z,39.99
2018-07-17T05:47:44.847Z,39.82
2018-07-17T05:48:52.827Z,39.68
2018-07-17T05:49:59.240Z,39.97
2018-07-17T05:51:05.707Z,39.68
2018-07-17T05:52:12.667Z,39.77
2018-07-17T05:53:19.947Z,39.36
2018-07-17T05:54:27.573Z,39.31
2018-07-17T05:55:34.887Z,38.56
2018-07-17T05:56:41.311Z,38.90
2018-07-17T05:57:47.715Z,38.71
2018-07-17T05:59:04.857Z,38.64
2018-07-17T06:01:44.952Z,38.24
2018-07-17T06:02:51.393Z,37.56
2018-07-17T06:03:57.705Z,37.46
2018-07-17T06:05:04.855Z,37.57
2018-07-17T06:06:12.301Z,37.05
2018-07-17T06:07:18.905Z,37.07
2018-07-17T06:08:26.341Z,36.30
2018-07-17T06:09:32.664Z,36.70
2018-07-17T06:10:39.891Z,36.64
2018-07-17T06:11:46.493Z,36.45
2018-07-17T06:12:52.865Z,35.89
2018-07-17T06:13:59.628Z,35.73
2018-07-17T06:15:06.450Z,35.71
2018-07-17T06:16:14.850Z,35.56
2018-07-17T06:17:21.541Z,35.62
2018-07-17T06:18:28.647Z,35.04
2018-07-17T06:19:35.476Z,34.80
2018-07-17T06:20:45.628Z,34.57
2018-07-17T06:21:52.001Z,34.61
2018-07-17T06:22:58.660Z,34.87
2018-07-17T06:24:05.774Z,34.20
2018-07-17T06:25:12.527Z,34.30
2018-07-17T06:26:19.327Z,34.24
2018-07-17T06:27:26.686Z,33.27
2018-07-17T06:28:37.109Z,33.23
2018-07-17T06:29:43.508Z,32.83
2018-07-17T06:30:51.089Z,32.44
2018-07-17T06:31:57.548Z,32.38
2018-07-17T06:33:05.375Z,32.72
2018-07-17T06:34:11.787Z,32.57
2018-07-17T06:35:19.160Z,32.46
2018-07-17T06:36:25.599Z,31.92
2018-07-17T06:37:32.730Z,32.26
2018-07-17T06:38:39.509Z,31.83
2018-07-17T06:39:46.562Z,31.42
2018-07-17T06:40:54.612Z,31.54
2018-07-17T06:42:01.058Z,31.30
2018-07-17T06:43:07.618Z,31.40
2018-07-17T06:44:16.294Z,31.29
2018-07-17T06:45:23.579Z,30.96
2018-07-17T06:46:31.170Z,30.01
2018-07-17T06:47:37.574Z,30.39
2018-07-17T06:48:44.015Z,30.49
2018-07-17T06:49:50.511Z,29.79
2018-07-17T06:50:59.687Z,29.69
2018-07-17T06:53:27.959Z,30.21
2018-07-17T06:54:34.708Z,29.75
2018-07-17T06:55:41.977Z,29.57
2018-07-17T06:56:48.602Z,29.87
2018-07-17T06:57:55.127Z,29.38
2018-07-17T06:59:01.328Z,29.37
2018-07-17T07:00:07.859Z,28.84
2018-07-17T07:01:14.321Z,28.87
2018-07-17T07:02:20.737Z,28.80
2018-07-17T07:03:27.673Z,28.39
2018-07-17T07:04:34.211Z,28.76
2018-07-17T07:05:40.631Z,28.40
2018-07-17T07:06:49.420Z,28.90
2018-07-17T07:07:56.002Z,27.91
2018-07-17T07:09:02.537Z,28.26
2018-07-17T07:10:08.997Z,28.17
2018-07-17T07:11:15.466Z,28.12
2018-07-17T07:12:24.585Z,27.80
2018-07-17T07:13:31.188Z,27.58
2018-07-17T07:14:37.683Z,27.89
2018-07-17T07:15:44.378Z,27.03
2018-07-17T07:16:51.061Z,27.13
2018-07-17T07:17:59.018Z,26.89
2018-07-17T07:19:07.777Z,26.37
2018-07-17T07:20:15.849Z,26.13
2018-07-17T07:21:22.345Z,26.57
2018-07-17T07:22:29.621Z,26.13
2018-07-17T07:23:36.015Z,26.54
2018-07-17T07:24:42.427Z,26.41
2018-07-17T07:25:49.520Z,26.59
2018-07-17T07:26:57.089Z,26.55
2018-07-17T07:28:04.560Z,26.71
2018-07-17T07:29:11.953Z,26.36
2018-07-17T07:30:19.089Z,26.09
2018-07-17T07:31:27.929Z,26.34
2018-07-17T07:32:35.915Z,26.09
2018-07-17T07:33:42.468Z,25.74
2018-07-17T07:34:48.885Z,25.91
2018-07-17T07:35:55.266Z,25.30
2018-07-17T07:37:02.682Z,25.26
2018-07-17T07:38:09.328Z,25.50
2018-07-17T07:39:16.613Z,25.31
2018-07-17T07:40:25.884Z,25.43
2018-07-17T07:41:32.253Z,24.92
2018-07-17T07:42:39.849Z,25.30
2018-07-17T07:43:46.911Z,25.04
2018-07-17T07:44:53.272Z,24.87
2018-07-17T07:47:12.420Z,24.25
2018-07-17T07:48:19.208Z,24.96
2018-07-17T07:49:26.640Z,24.75
2018-07-17T07:50:33.124Z,24.47
2018-07-17T07:51:39.784Z,24.51
2018-07-17T07:52:46.452Z,24.31
2018-07-17T07:53:53.015Z,24.14
2018-07-17T07:55:00.648Z,24.35
2018-07-17T07:56:07.390Z,23.86
2018-07-17T07:57:14.030Z,24.22
2018-07-17T07:58:20.521Z,23.99
2018-07-17T07:59:27.189Z,23.93
2018-07-17T08:00:33.490Z,23.33
2018-07-17T08:01:40.161Z,23.60
2018-07-17T08:02:48.107Z,23.39
2018-07-17T08:03:55.910Z,23.32
2018-07-17T08:05:03.573Z,23.69
2018-07-17T08:06:12.972Z,23.79
2018-07-17T08:07:19.422Z,23.56
2018-07-17T08:08:26.089Z,23.52
2018-07-17T08:09:32.583Z,23.53
2018-07-17T08:10:41.107Z,23.55
2018-07-17T08:11:47.621Z,24.17
2018-07-17T08:12:55.185Z,24.24
2018-07-17T08:14:02.724Z,24.61
2018-07-17T08:15:10.070Z,24.74
2018-07-17T08:16:16.986Z,24.95
2018-07-17T08:17:24.359Z,24.75
2018-07-17T08:18:31.323Z,24.86
2018-07-17T08:19:39.761Z,24.43
2018-07-17T08:20:46.497Z,24.24
2018-07-17T08:21:53.758Z,23.98
2018-07-17T08:23:01.715Z,23.97
2018-07-17T08:24:08.313Z,23.79
2018-07-17T08:25:18.193Z,23.56
2018-07-17T08:26:26.022Z,23.76
2018-07-17T08:27:32.452Z,23.40
2018-07-17T08:28:39.653Z,23.42
2018-07-17T08:29:48.903Z,23.29
2018-07-17T08:30:57.603Z,23.33
2018-07-17T08:32:04.021Z,22.98
2018-07-17T08:33:10.735Z,22.97
2018-07-17T08:34:18.984Z,22.72
2018-07-17T08:35:25.665Z,22.90
2018-07-17T08:36:33.112Z,22.82
2018-07-17T08:37:39.694Z,22.87
2018-07-17T08:38:46.223Z,22.79
2018-07-17T08:39:52.923Z,22.73
2018-07-17T08:40:59.620Z,22.51
2018-07-17T08:42:06.531Z,22.11
2018-07-17T08:43:13.202Z,22.50
2018-07-17T08:44:21.371Z,22.57
2018-07-17T08:45:27.671Z,22.60
2018-07-17T08:46:34.797Z,21.91
2018-07-17T08:47:42.056Z,21.99
2018-07-17T08:48:48.551Z,22.83
2018-07-17T08:49:56.979Z,23.01
2018-07-17T08:51:04.756Z,22.77
2018-07-17T08:52:11.322Z,22.20
2018-07-17T08:53:19.787Z,22.55
2018-07-17T08:54:26.415Z,22.35
2018-07-17T08:55:33.148Z,22.34
2018-07-17T08:56:39.827Z,22.76
2018-07-17T08:57:46.533Z,22.63
2018-07-17T08:58:55.017Z,22.82
2018-07-17T09:00:01.701Z,22.66
2018-07-17T09:01:09.778Z,22.60
2018-07-17T09:02:16.449Z,22.38
2018-07-17T09:03:22.872Z,22.27
2018-07-17T09:04:29.320Z,22.02
2018-07-17T09:05:41.498Z,22.45
2018-07-17T09:06:49.024Z,22.75
2018-07-17T09:07:55.605Z,22.41
2018-07-17T09:09:02.117Z,22.93
2018-07-17T09:10:08.615Z,22.63
2018-07-17T09:11:15.722Z,22.83
2018-07-17T09:12:22.559Z,23.27
2018-07-17T09:13:29.200Z,22.94
2018-07-17T09:14:35.452Z,23.15
2018-07-17T09:15:42.199Z,23.03
2018-07-17T09:16:48.636Z,22.94
2018-07-17T09:17:57.083Z,23.31
2018-07-17T09:19:03.525Z,23.42
2018-07-17T09:20:09.882Z,22.99
2018-07-17T09:21:16.239Z,23.01
2018-07-17T09:22:24.793Z,23.06
2018-07-17T09:23:31.684Z,23.33
2018-07-17T09:24:38.812Z,23.17
2018-07-17T09:25:45.395Z,22.91
2018-07-17T09:26:52.190Z,23.20
2018-07-17T09:28:01.979Z,23.36
2018-07-17T09:29:09.633Z,23.33
2018-07-17T09:30:16.083Z,23.50
2018-07-17T09:31:22.630Z,23.35
2018-07-17T09:32:31.668Z,23.57
2018-07-17T09:33:38.432Z,23.40
2018-07-17T09:34:46.926Z,23.47
2018-07-17T09:35:53.851Z,24.23
2018-07-17T09:37:00.865Z,24.10
2018-07-17T09:38:09.191Z,24.09
2018-07-17T09:39:15.682Z,24.23
2018-07-17T09:40:22.157Z,24.86
2018-07-17T09:41:30.168Z,24.61
2018-07-17T09:42:37.291Z,25.10
2018-07-17T09:43:46.402Z,24.91
2018-07-17T09:44:54.325Z,24.79
2018-07-17T09:46:01.033Z,24.94
2018-07-17T09:47:08.095Z,25.52
2018-07-17T09:48:14.575Z,25.32
2018-07-17T09:49:23.273Z,25.68
2018-07-17T09:50:31.657Z,25.63
2018-07-17T09:51:37.951Z,26.08
2018-07-17T09:52:44.881Z,25.92
2018-07-17T09:53:52.143Z,25.94
2018-07-17T09:55:01.227Z,26.29
2018-07-17T09:56:07.730Z,26.32
2018-07-17T09:57:14.292Z,25.23
2018-07-17T09:58:20.826Z,25.13
2018-07-17T09:59:29.268Z,25.19
2018-07-17T10:00:43.131Z,24.97
2018-07-17T10:01:55.062Z,25.48
2018-07-17T10:03:01.626Z,25.77
2018-07-17T10:04:08.429Z,25.55
2018-07-17T10:05:14.996Z,26.06
2018-07-17T10:06:23.248Z,26.01
2018-07-17T10:07:31.857Z,26.08
2018-07-17T10:08:39.177Z,26.63
2018-07-17T10:09:45.871Z,26.07
2018-07-17T10:10:52.310Z,27.08
2018-07-17T10:11:59.696Z,27.33
2018-07-17T10:13:08.337Z,28.16
2018-07-17T10:14:14.806Z,28.37
2018-07-17T10:15:21.188Z,28.97
2018-07-17T10:16:27.596Z,29.60
2018-07-17T10:17:35.284Z,29.97
2018-07-17T10:18:42.711Z,29.66
2018-07-17T10:19:49.766Z,30.30
2018-07-17T10:20:56.523Z,29.78
2018-07-17T10:22:03.034Z,30.72
2018-07-17T10:23:09.463Z,30.23
2018-07-17T10:24:17.645Z,30.81
2018-07-17T10:25:25.088Z,30.37
2018-07-17T10:26:32.018Z,30.84
2018-07-17T10:27:39.009Z,30.52
2018-07-17T10:28:45.583Z,30.77
2018-07-17T10:29:52.195Z,31.25
2018-07-17T10:30:59.722Z,31.13
2018-07-17T10:32:06.853Z,31.21
2018-07-17T10:33:13.582Z,31.36
2018-07-17T10:34:21.798Z,30.99
2018-07-17T10:35:30.167Z,31.18
2018-07-17T10:36:37.635Z,30.74
2018-07-17T10:37:44.087Z,31.48
2018-07-17T10:38:51.412Z,31.60
2018-07-17T10:39:57.908Z,31.57
2018-07-17T10:41:05.570Z,31.66
2018-07-17T10:42:11.993Z,31.48
2018-07-17T10:43:18.531Z,31.39
2018-07-17T10:44:26.621Z,31.46
2018-07-17T10:45:33.188Z,32.03
2018-07-17T10:46:40.162Z,32.17
2018-07-17T10:47:46.632Z,32.37
2018-07-17T10:48:55.350Z,32.11
2018-07-17T10:50:01.814Z,32.36
2018-07-17T10:51:08.328Z,32.21
2018-07-17T10:52:14.878Z,32.64
2018-07-17T10:53:24.232Z,32.89
2018-07-17T10:54:31.356Z,32.46
2018-07-17T10:55:38.762Z,32.97
2018-07-17T10:56:45.992Z,32.49
2018-07-17T10:57:57.830Z,33.07
2018-07-17T10:59:04.630Z,32.35
2018-07-17T11:00:10.918Z,32.69
2018-07-17T11:01:17.651Z,32.30
2018-07-17T11:02:29.075Z,32.91
2018-07-17T11:03:35.773Z,32.49
2018-07-17T11:04:41.827Z,32.49
2018-07-17T11:05:48.777Z,33.12
2018-07-17T11:06:56.620Z,32.61
2018-07-17T11:08:03.290Z,32.86
2018-07-17T11:09:10.235Z,33.33
2018-07-17T11:10:17.987Z,33.40
2018-07-17T11:11:24.340Z,33.55
2018-07-17T11:12:30.911Z,32.84
2018-07-17T11:13:39.140Z,32.86
2018-07-17T11:14:47.667Z,32.85
2018-07-17T11:15:54.026Z,33.16
2018-07-17T11:17:01.626Z,33.36
2018-07-17T11:18:08.151Z,32.96
2018-07-17T11:19:14.380Z,32.95
2018-07-17T11:20:21.418Z,33.60
2018-07-17T11:21:27.679Z,33.15
2018-07-17T11:22:33.866Z,33.77
2018-07-17T11:23:40.054Z,33.50
2018-07-17T11:24:46.338Z,33.04
2018-07-17T11:25:52.568Z,33.73
2018-07-17T11:27:00.527Z,33.67
2018-07-17T11:28:09.003Z,33.52
2018-07-17T11:29:21.454Z,32.79
2018-07-17T11:30:28.492Z,33.33
2018-07-17T11:31:35.871Z,33.41
2018-07-17T11:32:47.471Z,33.40
2018-07-17T11:33:55.204Z,32.96
2018-07-17T11:35:01.429Z,33.56
2018-07-17T11:36:07.887Z,33.69
2018-07-17T11:37:14.502Z,34.13
2018-07-17T11:38:22.279Z,34.26
2018-07-17T11:39:29.990Z,33.75
2018-07-17T11:40:36.586Z,33.79
2018-07-17T11:41:43.885Z,34.05
2018-07-17T11:42:50.025Z,33.69
2018-07-17T11:43:57.766Z,32.92
2018-07-17T11:45:04.260Z,32.82
2018-07-17T11:46:12.046Z,33.56
2018-07-17T11:47:19.641Z,33.50
2018-07-17T11:48:25.783Z,32.98
2018-07-17T11:49:32.678Z,33.13
2018-07-17T11:50:38.930Z,32.85
2018-07-17T11:51:46.345Z,32.83
2018-07-17T11:52:52.459Z,32.50
2018-07-17T11:53:58.611Z,32.84
2018-07-17T11:55:04.895Z,32.14
2018-07-17T11:56:11.845Z,32.24
2018-07-17T11:57:19.316Z,32.44
2018-07-17T11:58:26.804Z,32.49
2018-07-17T11:59:32.847Z,32.48
2018-07-17T12:00:41.804Z,32.15
2018-07-17T12:01:48.242Z,32.41
2018-07-17T12:02:57.304Z,32.21
2018-07-17T12:04:03.276Z,31.84
2018-07-17T12:05:10.815Z,31.92
2018-07-17T12:06:16.975Z,31.86
2018-07-17T12:07:23.048Z,31.98
2018-07-17T12:08:29.213Z,32.12
2018-07-17T12:09:35.632Z,32.35
2018-07-17T12:10:42.233Z,32.56
2018-07-17T12:11:49.892Z,32.54
2018-07-17T12:12:56.113Z,32.76
2018-07-17T12:14:02.477Z,32.46
2018-07-17T12:15:08.455Z,32.34
2018-07-17T12:16:15.680Z,33.11
2018-07-17T12:17:23.731Z,32.63
2018-07-17T12:18:29.923Z,33.03
2018-07-17T12:19:36.491Z,32.54
2018-07-17T12:20:45.526Z,33.07
2018-07-17T12:21:51.637Z,32.69
2018-07-17T12:22:58.353Z,32.65
2018-07-17T12:24:04.927Z,32.44
2018-07-17T12:25:11.693Z,32.40
2018-07-17T12:26:19.861Z,32.43
2018-07-17T12:27:29.439Z,31.80
2018-07-17T12:28:35.707Z,31.52
2018-07-17T12:29:43.771Z,31.00
2018-07-17T12:30:50.390Z,31.69
2018-07-17T12:31:57.407Z,31.38
2018-07-17T12:33:05.260Z,31.60
2018-07-17T12:34:14.210Z,31.66
2018-07-17T12:35:20.704Z,32.54
2018-07-17T12:36:27.298Z,32.68
2018-07-17T12:37:34.273Z,32.24
2018-07-17T12:38:41.664Z,32.80
2018-07-17T12:39:50.996Z,32.67
2018-07-17T12:40:57.212Z,31.98
2018-07-17T12:42:03.519Z,32.47
2018-07-17T12:43:12.140Z,32.50
2018-07-17T12:44:19.352Z,32.43
2018-07-17T12:45:25.580Z,33.15
2018-07-17T12:46:31.759Z,32.60
2018-07-17T12:47:38.020Z,32.41
2018-07-17T12:48:44.205Z,32.66
2018-07-17T12:49:50.401Z,32.59
2018-07-17T12:50:56.716Z,32.64
2018-07-17T12:52:05.180Z,33.19
2018-07-17T12:53:13.839Z,32.40
2018-07-17T12:54:20.288Z,32.55
2018-07-17T12:55:26.381Z,32.70
2018-07-17T12:56:33.716Z,32.28
2018-07-17T12:57:40.204Z,32.72
2018-07-17T12:58:47.967Z,32.90
2018-07-17T13:00:00.143Z,32.62
2018-07-17T13:01:08.510Z,32.31
2018-07-17T13:02:15.138Z,32.07
2018-07-17T13:03:22.322Z,32.23
2018-07-17T13:04:28.459Z,32.11
2018-07-17T13:05:35.598Z,31.79
2018-07-17T13:06:44.685Z,31.61
2018-07-17T13:07:51.159Z,31.04
2018-07-17T13:08:58.089Z,31.60
2018-07-17T13:10:04.399Z,31.35
2018-07-17T13:11:11.797Z,31.66
2018-07-17T13:12:18.059Z,31.37
2018-07-17T13:13:24.529Z,31.61
2018-07-17T13:14:30.624Z,31.23
2018-07-17T13:15:42.485Z,31.64
2018-07-17T13:16:50.833Z,31.98
2018-07-17T13:17:57.400Z,31.89
2018-07-17T13:19:03.447Z,31.68
2018-07-17T13:20:09.964Z,31.74
2018-07-17T13:21:16.965Z,31.03
2018-07-17T13:22:23.131Z,31.29
2018-07-17T13:23:30.065Z,30.71
2018-07-17T13:24:37.064Z,31.29
2018-07-17T13:25:43.515Z,31.06
2018-07-17T13:26:49.645Z,30.80
2018-07-17T13:27:56.181Z,30.85
2018-07-17T13:29:04.460Z,30.36
2018-07-17T13:30:11.429Z,29.76
2018-07-17T13:31:18.571Z,29.80
2018-07-17T13:32:25.468Z,30.26
2018-07-17T13:33:35.159Z,30.80
2018-07-17T13:34:41.301Z,31.36
2018-07-17T13:35:47.599Z,31.45
2018-07-17T13:36:54.305Z,31.50
2018-07-17T13:38:00.430Z,31.36
2018-07-17T13:39:10.356Z,31.13
2018-07-17T13:40:16.342Z,31.36
2018-07-17T13:41:22.634Z,30.72
2018-07-17T13:42:28.902Z,30.38
2018-07-17T13:43:35.195Z,29.07
2018-07-17T13:44:42.629Z,28.97
2018-07-17T13:45:49.772Z,28.77
2018-07-17T13:46:56.378Z,28.75
2018-07-17T13:48:04.853Z,29.00
2018-07-17T13:49:12.151Z,29.06
2018-07-17T13:50:21.126Z,29.39
2018-07-17T13:51:30.022Z,29.36
2018-07-17T13:52:38.255Z,28.33
2018-07-17T13:53:47.794Z,28.25
2018-07-17T13:54:56.564Z,28.31
2018-07-17T13:56:02.868Z,28.31
2018-07-17T13:57:09.458Z,28.14
2018-07-17T13:58:16.123Z,28.61
2018-07-17T13:59:22.717Z,28.21
2018-07-17T14:00:29.118Z,28.94
2018-07-17T14:01:35.201Z,28.89
2018-07-17T14:02:42.082Z,28.36
2018-07-17T14:03:48.290Z,29.46
2018-07-17T14:04:56.890Z,29.26
2018-07-17T14:06:03.071Z,29.90
2018-07-17T14:07:14.806Z,30.00
2018-07-17T14:08:23.160Z,30.42
2018-07-17T14:09:30.182Z,30.30
2018-07-17T14:10:36.304Z,30.65
2018-07-17T14:11:43.927Z,30.33
2018-07-17T14:12:51.822Z,30.37
2018-07-17T14:13:58.158Z,30.46
2018-07-17T14:15:05.143Z,31.00
2018-07-17T14:16:11.189Z,31.17
2018-07-17T14:17:20.736Z,30.79
2018-07-17T14:18:27.003Z,31.51
2018-07-17T14:19:34.864Z,31.63
2018-07-17T14:20:41.089Z,31.72
2018-07-17T14:21:47.267Z,31.86
2018-07-17T14:22:53.587Z,31.66
2018-07-17T14:24:01.397Z,32.15
2018-07-17T14:25:07.495Z,32.20
2018-07-17T14:26:13.694Z,31.71
2018-07-17T14:27:20.297Z,32.33
2018-07-17T14:28:27.705Z,32.53
2018-07-17T14:29:33.909Z,32.54
2018-07-17T14:30:43.037Z,32.28
2018-07-17T14:31:49.277Z,31.99
2018-07-17T14:32:55.576Z,32.59
2018-07-17T14:34:01.812Z,31.85
2018-07-17T14:35:08.121Z,32.44
2018-07-17T14:36:14.321Z,32.83
2018-07-17T14:37:21.245Z,32.70
2018-07-17T14:38:29.415Z,32.36
2018-07-17T14:39:37.085Z,32.74
2018-07-17T14:40:43.251Z,32.70
2018-07-17T14:41:50.295Z,32.49
2018-07-17T14:42:57.659Z,32.37
2018-07-17T14:44:03.895Z,32.66
2018-07-17T14:45:11.152Z,32.60
2018-07-17T14:46:17.283Z,32.53
2018-07-17T14:47:23.289Z,32.28
2018-07-17T14:48:30.241Z,32.53
2018-07-17T14:49:36.410Z,32.44
2018-07-17T14:50:42.487Z,32.42
2018-07-17T14:51:50.159Z,32.39
2018-07-17T14:52:56.495Z,31.86
2018-07-17T14:54:02.699Z,31.70
2018-07-17T14:55:10.675Z,32.12
2018-07-17T14:56:18.324Z,32.56
2018-07-17T14:57:25.083Z,32.22
2018-07-17T14:58:31.143Z,32.80
2018-07-17T14:59:37.451Z,33.02
2018-07-17T15:00:44.831Z,32.53
2018-07-17T15:01:52.291Z,32.77
2018-07-17T15:02:58.532Z,32.93
2018-07-17T15:04:04.877Z,32.51
2018-07-17T15:05:12.586Z,32.23
2018-07-17T15:06:19.213Z,31.31
2018-07-17T15:07:25.935Z,31.34
2018-07-17T15:08:32.960Z,31.33
2018-07-17T15:09:40.107Z,31.92
2018-07-17T15:10:46.523Z,31.95
2018-07-17T15:11:52.877Z,31.83
2018-07-17T15:12:59.386Z,31.65
2018-07-17T15:14:06.444Z,31.79
2018-07-17T15:15:13.623Z,32.39
2018-07-17T15:16:19.843Z,32.35
2018-07-17T15:17:26.317Z,32.49
2018-07-17T15:18:32.482Z,32.33
2018-07-17T15:19:41.431Z,31.75
2018-07-17T15:20:49.403Z,31.99
2018-07-17T15:21:57.047Z,31.88
2018-07-17T15:23:03.681Z,31.04
2018-07-17T15:24:11.540Z,31.81
2018-07-17T15:25:17.606Z,31.37
2018-07-17T15:26:23.871Z,31.29
2018-07-17T15:27:32.131Z,32.04
2018-07-17T15:28:38.221Z,30.89
2018-07-17T15:29:44.571Z,30.92
2018-07-17T15:30:50.967Z,29.81
2018-07-17T15:32:01.669Z,30.14
2018-07-17T15:33:09.316Z,30.51
2018-07-17T15:34:15.543Z,30.42
2018-07-17T15:35:24.101Z,30.38
2018-07-17T15:36:31.391Z,30.86
2018-07-17T15:37:39.315Z,30.50
2018-07-17T15:38:46.559Z,30.02
2018-07-17T15:39:52.863Z,30.47
2018-07-17T15:40:59.623Z,30.08
2018-07-17T15:42:05.738Z,30.44
2018-07-17T15:43:12.275Z,30.84
2018-07-17T15:44:19.073Z,30.09
2018-07-17T15:45:27.355Z,30.69
2018-07-17T15:46:34.941Z,29.96
2018-07-17T15:47:41.263Z,30.44
2018-07-17T15:48:47.415Z,29.43
2018-07-17T15:49:53.732Z,29.99
2018-07-17T15:51:00.414Z,29.43
2018-07-17T15:52:07.476Z,29.77
2018-07-17T15:53:13.982Z,30.24
2018-07-17T15:54:20.106Z,29.12
2018-07-17T15:55:26.681Z,29.38
2018-07-17T15:56:34.569Z,29.66
2018-07-17T15:57:40.667Z,29.55
2018-07-17T15:58:47.140Z,29.25
2018-07-17T15:59:56.074Z,29.12
2018-07-17T16:01:02.375Z,29.63
2018-07-17T16:02:08.581Z,28.97
2018-07-17T16:03:16.057Z,29.20
2018-07-17T16:04:24.374Z,29.30
2018-07-17T16:05:31.351Z,29.33
2018-07-17T16:06:40.936Z,30.21
2018-07-17T16:07:48.096Z,30.28
2018-07-17T16:08:54.231Z,29.81
2018-07-17T16:10:00.940Z,29.52
2018-07-17T16:11:07.801Z,30.17
2018-07-17T16:12:13.971Z,29.56
2018-07-17T16:13:20.315Z,29.83
2018-07-17T16:14:27.100Z,30.11
2018-07-17T16:15:33.188Z,30.18
2018-07-17T16:16:39.709Z,30.04
2018-07-17T16:17:48.766Z,31.23
2018-07-17T16:18:55.053Z,30.93
2018-07-17T16:20:01.750Z,30.70
2018-07-17T16:21:08.980Z,29.96
2018-07-17T16:22:16.553Z,30.02
2018-07-17T16:23:23.911Z,30.61
2018-07-17T16:24:31.590Z,30.85
2018-07-17T16:25:41.258Z,30.87
2018-07-17T16:26:47.419Z,30.92
2018-07-17T16:28:03.169Z,31.46
2018-07-17T16:29:10.066Z,31.98
2018-07-17T16:30:16.501Z,32.19
2018-07-17T16:31:25.237Z,32.09
2018-07-17T16:32:33.295Z,32.14
2018-07-17T16:33:42.219Z,32.41
2018-07-17T16:34:48.572Z,32.64
2018-07-17T16:35:56.211Z,32.81
2018-07-17T16:37:03.612Z,32.78
2018-07-17T16:38:09.860Z,33.05
2018-07-17T16:39:15.955Z,32.98
2018-07-17T16:40:22.095Z,33.52
2018-07-17T16:41:28.455Z,33.49
2018-07-17T16:42:36.833Z,33.33
2018-07-17T16:43:43.021Z,33.93
2018-07-17T16:44:49.083Z,33.52
2018-07-17T16:45:55.309Z,33.44
2018-07-17T16:47:01.581Z,33.54
2018-07-17T16:48:07.985Z,34.09
2018-07-17T16:49:17.357Z,33.73
2018-07-17T16:50:23.529Z,33.69
2018-07-17T16:51:29.639Z,34.12
2018-07-17T16:52:36.001Z,34.35
2018-07-17T16:53:42.217Z,34.33
2018-07-17T16:54:51.266Z,34.31
2018-07-17T16:55:57.918Z,33.58
2018-07-17T16:57:13.862Z,33.72
2018-07-17T16:58:20.725Z,33.40
2018-07-17T16:59:27.864Z,33.42
2018-07-17T17:00:34.616Z,33.39
2018-07-17T17:01:41.608Z,32.86
2018-07-17T17:02:48.865Z,32.87
2018-07-17T17:03:55.671Z,32.03
2018-07-17T17:05:02.457Z,32.46
2018-07-17T17:06:09.560Z,32.60
2018-07-17T17:07:17.431Z,32.51
2018-07-17T17:08:29.043Z,32.59
2018-07-17T17:09:37.564Z,32.61
2018-07-17T17:10:45.140Z,32.47
2018-07-17T17:11:51.798Z,33.21
2018-07-17T17:12:58.466Z,32.94
2018-07-17T17:14:05.910Z,32.15
2018-07-17T17:15:12.799Z,32.35
2018-07-17T17:16:19.292Z,33.05
2018-07-17T17:17:26.420Z,32.62
2018-07-17T17:18:32.681Z,33.63
2018-07-17T17:19:43.099Z,33.78
2018-07-17T17:20:50.679Z,33.04
2018-07-17T17:22:00.611Z,34.06
2018-07-17T17:23:06.806Z,33.69
2018-07-17T17:24:13.120Z,33.82
2018-07-17T17:25:19.729Z,34.49
2018-07-17T17:26:26.072Z,34.09
2018-07-17T17:27:32.988Z,34.31
2018-07-17T17:28:39.138Z,34.87
2018-07-17T17:29:45.278Z,34.74
2018-07-17T17:30:51.549Z,35.00
2018-07-17T17:31:59.178Z,35.12
2018-07-17T17:33:06.354Z,34.70
2018-07-17T17:34:14.310Z,34.50
2018-07-17T17:35:20.498Z,34.14
2018-07-17T17:36:26.677Z,34.87
2018-07-17T17:37:36.708Z,35.04
2018-07-17T17:38:43.662Z,34.87
2018-07-17T17:39:50.965Z,35.04
2018-07-17T17:40:57.702Z,34.57
2018-07-17T17:42:03.950Z,35.08
2018-07-17T17:43:10.182Z,34.92
2018-07-17T17:44:17.484Z,35.10
2018-07-17T17:45:26.047Z,34.66
2018-07-17T17:46:32.920Z,34.57
2018-07-17T17:47:39.360Z,34.40
2018-07-17T17:48:45.737Z,34.77
2018-07-17T17:49:52.499Z,34.06
2018-07-17T17:50:59.604Z,34.41
2018-07-17T17:52:06.780Z,33.94
2018-07-17T17:53:13.094Z,33.55
2018-07-17T17:54:21.259Z,33.59
2018-07-17T17:55:27.416Z,33.23
2018-07-17T17:56:34.456Z,32.88
2018-07-17T17:57:41.848Z,33.38
2018-07-17T17:58:48.221Z,33.25
2018-07-17T17:59:54.471Z,33.07
2018-07-17T18:01:03.120Z,32.87
2018-07-17T18:02:09.501Z,33.67
2018-07-17T18:03:15.491Z,33.65
2018-07-17T18:04:21.516Z,33.61
2018-07-17T18:05:27.641Z,33.08
2018-07-17T18:06:33.664Z,33.52
2018-07-17T18:07:40.106Z,33.61
2018-07-17T18:08:46.276Z,33.35
2018-07-17T18:09:52.435Z,33.77
2018-07-17T18:11:00.759Z,33.79
2018-07-17T18:12:07.122Z,33.99
2018-07-17T18:13:15.028Z,33.98
2018-07-17T18:14:24.289Z,34.37
2018-07-17T18:15:30.733Z,34.50
2018-07-17T18:16:40.524Z,33.84
2018-07-17T18:17:51.506Z,34.30
2018-07-17T18:18:58.533Z,34.51
2018-07-17T18:20:05.649Z,34.41
2018-07-17T18:21:12.153Z,34.52
2018-07-17T18:22:19.201Z,34.56
2018-07-17T18:23:29.387Z,34.95
2018-07-17T18:24:37.271Z,34.70
2018-07-17T18:25:43.344Z,34.67
2018-07-17T18:26:52.495Z,35.13
2018-07-17T18:27:58.529Z,35.30
2018-07-17T18:29:05.567Z,35.93
2018-07-17T18:30:11.713Z,35.89
2018-07-17T18:31:19.147Z,36.48
2018-07-17T18:32:25.317Z,36.79
2018-07-17T18:33:31.353Z,36.66
2018-07-17T18:34:38.403Z,36.74
2018-07-17T18:35:47.483Z,37.29
2018-07-17T18:36:54.338Z,37.50
2018-07-17T18:38:01.233Z,37.34
2018-07-17T18:39:08.810Z,37.64
2018-07-17T18:40:16.093Z,37.99
2018-07-17T18:41:22.375Z,38.33
2018-07-17T18:42:29.597Z,38.38
2018-07-17T18:43:36.197Z,38.86
2018-07-17T18:44:44.617Z,38.83
2018-07-17T18:45:51.047Z,39.23
2018-07-17T18:46:57.351Z,39.35
2018-07-17T18:48:03.894Z,39.58
2018-07-17T18:49:11.761Z,39.57
2018-07-17T18:50:18.441Z,39.93
2018-07-17T18:51:28.661Z,40.23
2018-07-17T18:52:34.936Z,40.42
2018-07-17T18:53:43.582Z,40.55
2018-07-17T18:54:50.123Z,40.88
2018-07-17T18:55:57.219Z,40.88
2018-07-17T18:57:03.426Z,41.04
2018-07-17T18:58:09.667Z,41.46
2018-07-17T18:59:17.269Z,41.88
2018-07-17T19:00:23.484Z,41.90
2018-07-17T19:01:29.776Z,41.95
2018-07-17T19:02:36.133Z,42.01
2018-07-17T19:03:42.275Z,42.10
2018-07-17T19:04:48.832Z,42.60
2018-07-17T19:05:55.401Z,42.61
2018-07-17T19:07:01.573Z,42.57
2018-07-17T19:08:07.809Z,42.64
2018-07-17T19:09:13.847Z,43.09
2018-07-17T19:10:21.447Z,43.32
2018-07-17T19:11:27.630Z,43.17
2018-07-17T19:12:33.789Z,43.23
2018-07-17T19:13:40.668Z,43.47
2018-07-17T19:14:48.074Z,43.71
2018-07-17T19:15:54.353Z,43.76
2018-07-17T19:17:02.766Z,44.01
2018-07-17T19:18:08.922Z,44.27
2018-07-17T19:19:15.887Z,44.17
2018-07-17T19:20:22.067Z,44.51
2018-07-17T19:21:28.163Z,44.71
2018-07-17T19:22:34.295Z,44.86
2018-07-17T19:23:42.522Z,44.94